sensor_id;sensor_type;location;lat;lon;timestamp;pressure;altitude;pressure_sealevel;temperature;humidity
20444;BME280;10381;53.730;10.010;2024-01-07T00:03:19;101866.22;;;-2.75;100.00
20444;BME280;10381;53.730;10.010;2024-01-07T00:07:20;101883.66;;;-2.83;100.00
20444;BME280;10381;53.730;10.010;2024-01-07T00:11:21;101876.53;;;-2.69;100.00
20444;BME280;10381;53.730;10.010;2024-01-07T00:15:21;101879.25;;;-2.80;100.00
20444;BME280;10381;53.730;10.010;2024-01-07T00:19:21;101886.06;;;-2.72;100.00
20444;BME280;10381;53.730;10.010;2024-01-07T00:23:21;101882.69;;;-2.76;100.00
20444;BME280;10381;53.730;10.010;2024-01-07T00:27:22;101879.13;;;-2.72;100.00
20444;BME280;10381;53.730;10.010;2024-01-07T00:31:22;101890.28;;;-2.64;100.00
20444;BME280;10381;53.730;10.010;2024-01-07T00:35:22;101905.88;;;-2.67;100.00
20444;BME280;10381;53.730;10.010;2024-01-07T00:39:23;101914.34;;;-2.55;100.00
20444;BME280;10381;53.730;10.010;2024-01-07T00:43:23;101904.09;;;-2.65;100.00
20444;BME280;10381;53.730;10.010;2024-01-07T00:47:23;101910.13;;;-2.61;100.00
20444;BME280;10381;53.730;10.010;2024-01-07T00:51:23;101913.47;;;-2.54;100.00
20444;BME280;10381;53.730;10.010;2024-01-07T00:55:24;101921.34;;;-2.61;100.00
20444;BME280;10381;53.730;10.010;2024-01-07T00:59:24;101922.25;;;-2.63;100.00
20444;BME280;10381;53.730;10.010;2024-01-07T01:03:24;101928.34;;;-2.66;100.00
20444;BME280;10381;53.730;10.010;2024-01-07T01:07:25;101929.19;;;-2.64;100.00
20444;BME280;10381;53.730;10.010;2024-01-07T01:11:25;101943.13;;;-2.71;100.00
20444;BME280;10381;53.730;10.010;2024-01-07T01:15:25;101938.84;;;-2.75;100.00
20444;BME280;10381;53.730;10.010;2024-01-07T01:19:25;101944.16;;;-2.84;100.00
20444;BME280;10381;53.730;10.010;2024-01-07T01:23:27;101938.72;;;-2.66;100.00
20444;BME280;10381;53.730;10.010;2024-01-07T01:27:28;101948.13;;;-2.60;100.00
20444;BME280;10381;53.730;10.010;2024-01-07T01:31:28;101959.34;;;-2.57;100.00
20444;BME280;10381;53.730;10.010;2024-01-07T01:35:28;101983.47;;;-2.51;100.00
20444;BME280;10381;53.730;10.010;2024-01-07T01:39:29;101968.69;;;-2.45;100.00
20444;BME280;10381;53.730;10.010;2024-01-07T01:43:29;101986.03;;;-2.48;100.00
20444;BME280;10381;53.730;10.010;2024-01-07T01:47:30;101990.22;;;-2.38;100.00
20444;BME280;10381;53.730;10.010;2024-01-07T01:51:31;101986.78;;;-2.40;100.00
20444;BME280;10381;53.730;10.010;2024-01-07T01:55:31;101996.19;;;-2.34;100.00
20444;BME280;10381;53.730;10.010;2024-01-07T01:59:33;101987.50;;;-2.32;100.00
20444;BME280;10381;53.730;10.010;2024-01-07T02:03:33;101994.38;;;-2.29;100.00
20444;BME280;10381;53.730;10.010;2024-01-07T02:07:34;102000.50;;;-2.32;100.00
20444;BME280;10381;53.730;10.010;2024-01-07T02:11:34;102007.25;;;-2.22;100.00
20444;BME280;10381;53.730;10.010;2024-01-07T02:15:35;101996.84;;;-2.20;100.00
20444;BME280;10381;53.730;10.010;2024-01-07T02:19:35;102008.97;;;-2.21;100.00
20444;BME280;10381;53.730;10.010;2024-01-07T02:23:35;102018.50;;;-2.21;100.00
20444;BME280;10381;53.730;10.010;2024-01-07T02:27:36;102021.97;;;-2.22;100.00
20444;BME280;10381;53.730;10.010;2024-01-07T02:31:36;102018.41;;;-2.15;100.00
20444;BME280;10381;53.730;10.010;2024-01-07T02:35:36;102020.06;;;-2.11;100.00
20444;BME280;10381;53.730;10.010;2024-01-07T02:39:36;102023.50;;;-2.09;100.00
20444;BME280;10381;53.730;10.010;2024-01-07T02:43:37;102023.47;;;-2.07;100.00
20444;BME280;10381;53.730;10.010;2024-01-07T02:47:38;102017.41;;;-2.06;100.00
20444;BME280;10381;53.730;10.010;2024-01-07T02:51:38;102020.84;;;-2.06;100.00
20444;BME280;10381;53.730;10.010;2024-01-07T02:55:39;102038.19;;;-2.06;100.00
20444;BME280;10381;53.730;10.010;2024-01-07T02:59:39;102045.13;;;-2.08;100.00
20444;BME280;10381;53.730;10.010;2024-01-07T03:03:39;102039.94;;;-2.08;100.00
20444;BME280;10381;53.730;10.010;2024-01-07T03:07:40;102045.13;;;-2.08;100.00
20444;BME280;10381;53.730;10.010;2024-01-07T03:11:40;102051.09;;;-2.03;100.00
20444;BME280;10381;53.730;10.010;2024-01-07T03:15:43;102059.72;;;-2.01;100.00
20444;BME280;10381;53.730;10.010;2024-01-07T03:19:44;102061.50;;;-2.03;100.00
20444;BME280;10381;53.730;10.010;2024-01-07T03:23:44;102064.94;;;-2.01;100.00
20444;BME280;10381;53.730;10.010;2024-01-07T03:27:44;102077.94;;;-2.03;100.00
20444;BME280;10381;53.730;10.010;2024-01-07T03:31:44;102081.47;;;-2.08;100.00
20444;BME280;10381;53.730;10.010;2024-01-07T03:35:45;102078.00;;;-2.07;100.00
20444;BME280;10381;53.730;10.010;2024-01-07T03:39:47;102080.50;;;-2.01;100.00
20444;BME280;10381;53.730;10.010;2024-01-07T03:43:48;102076.22;;;-2.05;100.00
20444;BME280;10381;53.730;10.010;2024-01-07T03:47:48;102086.56;;;-2.01;100.00
20444;BME280;10381;53.730;10.010;2024-01-07T03:51:49;102087.34;;;-1.96;100.00
20444;BME280;10381;53.730;10.010;2024-01-07T03:55:49;102091.63;;;-1.93;100.00
20444;BME280;10381;53.730;10.010;2024-01-07T03:59:49;102097.72;;;-1.96;100.00
20444;BME280;10381;53.730;10.010;2024-01-07T04:03:49;102098.56;;;-1.92;100.00
20444;BME280;10381;53.730;10.010;2024-01-07T04:07:50;102102.88;;;-1.93;100.00
20444;BME280;10381;53.730;10.010;2024-01-07T04:11:50;102109.75;;;-1.88;100.00
20444;BME280;10381;53.730;10.010;2024-01-07T04:15:50;102112.28;;;-1.84;100.00
20444;BME280;10381;53.730;10.010;2024-01-07T04:19:52;102120.06;;;-1.84;100.00
20444;BME280;10381;53.730;10.010;2024-01-07T04:23:53;102122.78;;;-1.93;100.00
20444;BME280;10381;53.730;10.010;2024-01-07T04:27:53;102128.75;;;-1.86;100.00
20444;BME280;10381;53.730;10.010;2024-01-07T04:31:53;102120.97;;;-1.86;100.00
20444;BME280;10381;53.730;10.010;2024-01-07T04:35:53;102127.25;;;-2.01;100.00
20444;BME280;10381;53.730;10.010;2024-01-07T04:39:58;102125.38;;;-1.91;100.00
20444;BME280;10381;53.730;10.010;2024-01-07T04:43:58;102129.53;;;-1.81;100.00
20444;BME280;10381;53.730;10.010;2024-01-07T04:47:59;102136.53;;;-1.85;100.00
20444;BME280;10381;53.730;10.010;2024-01-07T04:51:59;102137.41;;;-1.84;100.00
20444;BME280;10381;53.730;10.010;2024-01-07T04:55:59;102155.53;;;-1.83;100.00
20444;BME280;10381;53.730;10.010;2024-01-07T04:59:59;102149.59;;;-1.89;100.00
20444;BME280;10381;53.730;10.010;2024-01-07T05:04:00;102156.50;;;-1.88;100.00
20444;BME280;10381;53.730;10.010;2024-01-07T05:08:00;102165.13;;;-1.85;100.00
20444;BME280;10381;53.730;10.010;2024-01-07T05:12:00;102172.00;;;-1.82;100.00
20444;BME280;10381;53.730;10.010;2024-01-07T05:16:01;102180.69;;;-1.85;100.00
20444;BME280;10381;53.730;10.010;2024-01-07T05:20:03;102175.56;;;-1.89;100.00
20444;BME280;10381;53.730;10.010;2024-01-07T05:24:04;102183.31;;;-1.85;100.00
20444;BME280;10381;53.730;10.010;2024-01-07T05:28:04;102189.34;;;-1.86;100.00
20444;BME280;10381;53.730;10.010;2024-01-07T05:32:05;102194.50;;;-1.81;100.00
20444;BME280;10381;53.730;10.010;2024-01-07T05:36:06;102197.06;;;-1.80;100.00
20444;BME280;10381;53.730;10.010;2024-01-07T05:40:07;102204.09;;;-1.85;100.00
20444;BME280;10381;53.730;10.010;2024-01-07T05:44:07;102199.69;;;-1.83;100.00
20444;BME280;10381;53.730;10.010;2024-01-07T05:48:08;102212.69;;;-1.83;100.00
20444;BME280;10381;53.730;10.010;2024-01-07T05:52:08;102211.81;;;-1.82;100.00
20444;BME280;10381;53.730;10.010;2024-01-07T05:56:09;102216.13;;;-1.81;100.00
20444;BME280;10381;53.730;10.010;2024-01-07T06:00:09;102215.28;;;-1.83;100.00
20444;BME280;10381;53.730;10.010;2024-01-07T06:04:11;102219.50;;;-1.76;100.00
20444;BME280;10381;53.730;10.010;2024-01-07T06:08:11;102209.13;;;-1.74;100.00
20444;BME280;10381;53.730;10.010;2024-01-07T06:12:14;102200.53;;;-1.81;100.00
20444;BME280;10381;53.730;10.010;2024-01-07T06:16:14;102207.47;;;-1.81;100.00
20444;BME280;10381;53.730;10.010;2024-01-07T06:20:14;102207.53;;;-1.84;100.00
20444;BME280;10381;53.730;10.010;2024-01-07T06:24:15;102191.97;;;-1.86;100.00
20444;BME280;10381;53.730;10.010;2024-01-07T06:28:15;102201.53;;;-1.89;100.00
20444;BME280;10381;53.730;10.010;2024-01-07T06:32:15;102198.06;;;-1.88;100.00
20444;BME280;10381;53.730;10.010;2024-01-07T06:36:16;102192.88;;;-1.88;100.00
20444;BME280;10381;53.730;10.010;2024-01-07T06:40:16;102189.59;;;-2.03;100.00
20444;BME280;10381;53.730;10.010;2024-01-07T06:44:16;102185.31;;;-2.05;100.00
20444;BME280;10381;53.730;10.010;2024-01-07T06:48:17;102194.00;;;-2.09;100.00
20444;BME280;10381;53.730;10.010;2024-01-07T06:52:17;102199.13;;;-2.05;100.00
20444;BME280;10381;53.730;10.010;2024-01-07T06:56:19;102203.53;;;-2.10;100.00
20444;BME280;10381;53.730;10.010;2024-01-07T07:00:19;102200.25;;;-2.21;100.00
20444;BME280;10381;53.730;10.010;2024-01-07T07:04:20;102211.59;;;-2.31;100.00
20444;BME280;10381;53.730;10.010;2024-01-07T07:08:20;102212.44;;;-2.31;100.00
20444;BME280;10381;53.730;10.010;2024-01-07T07:12:20;102219.38;;;-2.30;100.00
20444;BME280;10381;53.730;10.010;2024-01-07T07:16:22;102234.06;;;-2.29;100.00
20444;BME280;10381;53.730;10.010;2024-01-07T07:20:23;102236.69;;;-2.30;100.00
20444;BME280;10381;53.730;10.010;2024-01-07T07:24:23;102250.72;;;-2.47;100.00
20444;BME280;10381;53.730;10.010;2024-01-07T07:28:23;102251.78;;;-2.68;100.00
20444;BME280;10381;53.730;10.010;2024-01-07T07:32:23;102257.00;;;-2.69;100.00
20444;BME280;10381;53.730;10.010;2024-01-07T07:36:24;102261.34;;;-2.74;100.00
20444;BME280;10381;53.730;10.010;2024-01-07T07:40:24;102269.16;;;-2.79;100.00
20444;BME280;10381;53.730;10.010;2024-01-07T07:44:24;102278.69;;;-2.78;100.00
20444;BME280;10381;53.730;10.010;2024-01-07T07:48:25;102290.84;;;-2.83;100.00
20444;BME280;10381;53.730;10.010;2024-01-07T07:52:26;102296.91;;;-2.87;100.00
20444;BME280;10381;53.730;10.010;2024-01-07T07:56:26;102297.69;;;-2.76;100.00
20444;BME280;10381;53.730;10.010;2024-01-07T08:00:27;102308.00;;;-2.67;100.00
20444;BME280;10381;53.730;10.010;2024-01-07T08:04:28;102306.28;;;-2.69;100.00
20444;BME280;10381;53.730;10.010;2024-01-07T08:08:28;102322.75;;;-2.75;100.00
20444;BME280;10381;53.730;10.010;2024-01-07T08:12:28;102328.88;;;-2.85;100.00
20444;BME280;10381;53.730;10.010;2024-01-07T08:16:29;102337.72;;;-3.14;100.00
20444;BME280;10381;53.730;10.010;2024-01-07T08:20:29;102342.09;;;-3.17;100.00
20444;BME280;10381;53.730;10.010;2024-01-07T08:24:29;102339.63;;;-3.39;100.00
20444;BME280;10381;53.730;10.010;2024-01-07T08:28:30;102353.50;;;-3.58;100.00
20444;BME280;10381;53.730;10.010;2024-01-07T08:32:30;102361.34;;;-3.63;100.00
20444;BME280;10381;53.730;10.010;2024-01-07T08:36:30;102363.13;;;-3.87;100.00
20444;BME280;10381;53.730;10.010;2024-01-07T08:40:31;102367.44;;;-3.89;100.00
20444;BME280;10381;53.730;10.010;2024-01-07T08:44:31;102370.03;;;-3.89;100.00
20444;BME280;10381;53.730;10.010;2024-01-07T08:48:31;102382.13;;;-3.95;100.00
20444;BME280;10381;53.730;10.010;2024-01-07T08:52:32;102391.59;;;-3.82;100.00
20444;BME280;10381;53.730;10.010;2024-01-07T08:56:35;102404.50;;;-3.71;100.00
20444;BME280;10381;53.730;10.010;2024-01-07T09:00:35;102406.22;;;-3.64;100.00
20444;BME280;10381;53.730;10.010;2024-01-07T09:04:35;102416.50;;;-3.36;100.00
20444;BME280;10381;53.730;10.010;2024-01-07T09:08:36;102425.84;;;-3.11;100.00
20444;BME280;10381;53.730;10.010;2024-01-07T09:12:37;102431.88;;;-3.06;100.00
20444;BME280;10381;53.730;10.010;2024-01-07T09:16:37;102446.53;;;-2.97;100.00
20444;BME280;10381;53.730;10.010;2024-01-07T09:20:38;102456.91;;;-3.03;100.00
20444;BME280;10381;53.730;10.010;2024-01-07T09:24:38;102464.63;;;-2.88;100.00
20444;BME280;10381;53.730;10.010;2024-01-07T09:28:39;102464.44;;;-2.52;100.00
20444;BME280;10381;53.730;10.010;2024-01-07T09:32:40;102467.72;;;-2.30;100.00
20444;BME280;10381;53.730;10.010;2024-01-07T09:36:40;102485.88;;;-2.26;100.00
20444;BME280;10381;53.730;10.010;2024-01-07T09:40:40;102489.41;;;-2.39;100.00
20444;BME280;10381;53.730;10.010;2024-01-07T09:44:41;102492.09;;;-2.53;100.00
20444;BME280;10381;53.730;10.010;2024-01-07T09:48:45;102490.47;;;-2.71;100.00
20444;BME280;10381;53.730;10.010;2024-01-07T09:52:46;102487.03;;;-2.73;100.00
20444;BME280;10381;53.730;10.010;2024-01-07T09:56:50;102485.28;;;-2.72;100.00
20444;BME280;10381;53.730;10.010;2024-01-07T10:00:55;102482.72;;;-2.74;100.00
20444;BME280;10381;53.730;10.010;2024-01-07T10:04:55;102484.41;;;-2.70;100.00
20444;BME280;10381;53.730;10.010;2024-01-07T10:08:56;102487.91;;;-2.77;100.00
20444;BME280;10381;53.730;10.010;2024-01-07T10:12:56;102479.22;;;-2.68;100.00
20444;BME280;10381;53.730;10.010;2024-01-07T10:16:56;102491.28;;;-2.63;100.00
20444;BME280;10381;53.730;10.010;2024-01-07T10:21:02;102492.13;;;-2.61;100.00
20444;BME280;10381;53.730;10.010;2024-01-07T10:25:04;102491.31;;;-2.64;100.00
20444;BME280;10381;53.730;10.010;2024-01-07T10:29:05;102498.22;;;-2.63;100.00
20444;BME280;10381;53.730;10.010;2024-01-07T10:33:06;102495.69;;;-2.74;100.00
20444;BME280;10381;53.730;10.010;2024-01-07T10:37:08;102493.94;;;-2.75;100.00
20444;BME280;10381;53.730;10.010;2024-01-07T10:41:11;102490.50;;;-2.77;100.00
20444;BME280;10381;53.730;10.010;2024-01-07T10:45:11;102499.97;;;-2.70;100.00
20444;BME280;10381;53.730;10.010;2024-01-07T10:49:23;102490.44;;;-2.63;100.00
20444;BME280;10381;53.730;10.010;2024-01-07T10:53:28;102492.13;;;-2.58;100.00
20444;BME280;10381;53.730;10.010;2024-01-07T10:57:45;102491.22;;;-2.55;100.00
20444;BME280;10381;53.730;10.010;2024-01-07T11:01:47;102496.41;;;-2.55;100.00
20444;BME280;10381;53.730;10.010;2024-01-07T11:10:03;102501.59;;;-2.49;100.00
20444;BME280;10381;53.730;10.010;2024-01-07T11:14:38;102502.47;;;-2.51;100.00
20444;BME280;10381;53.730;10.010;2024-01-07T11:18:45;102505.88;;;-2.46;100.00
20444;BME280;10381;53.730;10.010;2024-01-07T11:22:45;102511.94;;;-2.44;100.00
20444;BME280;10381;53.730;10.010;2024-01-07T11:26:47;102513.66;;;-2.40;100.00
20444;BME280;10381;53.730;10.010;2024-01-07T11:30:47;102518.84;;;-2.43;100.00
20444;BME280;10381;53.730;10.010;2024-01-07T11:34:49;102517.03;;;-2.26;100.00
20444;BME280;10381;53.730;10.010;2024-01-07T11:38:53;102523.09;;;-2.30;100.00
20444;BME280;10381;53.730;10.010;2024-01-07T11:42:54;102530.03;;;-2.30;100.00
20444;BME280;10381;53.730;10.010;2024-01-07T11:46:54;102530.00;;;-2.27;100.00
20444;BME280;10381;53.730;10.010;2024-01-07T11:50:54;102528.28;;;-2.28;100.00
20444;BME280;10381;53.730;10.010;2024-01-07T11:54:55;102537.75;;;-2.24;100.00
20444;BME280;10381;53.730;10.010;2024-01-07T11:58:56;102538.59;;;-2.24;100.00
20444;BME280;10381;53.730;10.010;2024-01-07T12:02:57;102540.34;;;-2.24;100.00
20444;BME280;10381;53.730;10.010;2024-01-07T12:06:58;102549.03;;;-2.27;100.00
20444;BME280;10381;53.730;10.010;2024-01-07T12:10:59;102545.56;;;-2.29;100.00
20444;BME280;10381;53.730;10.010;2024-01-07T12:15:00;102548.03;;;-2.04;100.00
20444;BME280;10381;53.730;10.010;2024-01-07T12:19:00;102541.97;;;-2.08;100.00
20444;BME280;10381;53.730;10.010;2024-01-07T12:23:08;102545.56;;;-2.29;100.00
20444;BME280;10381;53.730;10.010;2024-01-07T12:27:08;102549.06;;;-2.36;100.00
20444;BME280;10381;53.730;10.010;2024-01-07T12:31:09;102543.19;;;-2.61;100.00
20444;BME280;10381;53.730;10.010;2024-01-07T12:35:09;102549.16;;;-2.47;100.00
20444;BME280;10381;53.730;10.010;2024-01-07T12:39:10;102554.31;;;-2.42;100.00
20444;BME280;10381;53.730;10.010;2024-01-07T12:43:10;102557.88;;;-2.60;100.00
20444;BME280;10381;53.730;10.010;2024-01-07T12:47:11;102554.38;;;-2.58;100.00
20444;BME280;10381;53.730;10.010;2024-01-07T12:51:11;102554.50;;;-2.82;100.00
20444;BME280;10381;53.730;10.010;2024-01-07T12:55:11;102554.53;;;-2.91;100.00
20444;BME280;10381;53.730;10.010;2024-01-07T12:59:11;102550.19;;;-2.82;100.00
20444;BME280;10381;53.730;10.010;2024-01-07T13:03:12;102550.16;;;-2.72;100.00
20444;BME280;10381;53.730;10.010;2024-01-07T13:07:17;102550.19;;;-2.80;100.00
20444;BME280;10381;53.730;10.010;2024-01-07T13:11:17;102552.78;;;-2.80;100.00
20444;BME280;10381;53.730;10.010;2024-01-07T13:15:18;102564.91;;;-2.91;100.00
20444;BME280;10381;53.730;10.010;2024-01-07T13:19:18;102578.78;;;-2.98;100.00
20444;BME280;10381;53.730;10.010;2024-01-07T13:23:18;102576.28;;;-3.31;100.00
20444;BME280;10381;53.730;10.010;2024-01-07T13:27:19;102573.69;;;-3.32;100.00
20444;BME280;10381;53.730;10.010;2024-01-07T13:31:19;102580.59;;;-3.34;100.00
20444;BME280;10381;53.730;10.010;2024-01-07T13:35:19;102584.06;;;-3.35;100.00
20444;BME280;10381;53.730;10.010;2024-01-07T13:39:19;102584.91;;;-3.30;100.00
20444;BME280;10381;53.730;10.010;2024-01-07T13:43:21;102597.88;;;-3.38;100.00
20444;BME280;10381;53.730;10.010;2024-01-07T13:47:23;102599.63;;;-3.51;100.00
20444;BME280;10381;53.730;10.010;2024-01-07T13:51:24;102595.31;;;-3.61;100.00
20444;BME280;10381;53.730;10.010;2024-01-07T13:55:24;102597.03;;;-3.66;100.00
20444;BME280;10381;53.730;10.010;2024-01-07T13:59:24;102613.44;;;-3.73;100.00
20444;BME280;10381;53.730;10.010;2024-01-07T14:03:25;102615.16;;;-3.81;100.00
20444;BME280;10381;53.730;10.010;2024-01-07T14:07:25;102621.19;;;-3.86;100.00
20444;BME280;10381;53.730;10.010;2024-01-07T14:11:26;102624.69;;;-3.57;100.00
20444;BME280;10381;53.730;10.010;2024-01-07T14:15:28;102621.22;;;-3.43;100.00
20444;BME280;10381;53.730;10.010;2024-01-07T14:19:29;102622.06;;;-3.33;100.00
20444;BME280;10381;53.730;10.010;2024-01-07T14:23:29;102623.78;;;-3.30;100.00
20444;BME280;10381;53.730;10.010;2024-01-07T14:27:31;102621.19;;;-3.27;100.00
20444;BME280;10381;53.730;10.010;2024-01-07T14:31:31;102626.38;;;-3.29;100.00
20444;BME280;10381;53.730;10.010;2024-01-07T14:35:32;102635.03;;;-3.28;100.00
20444;BME280;10381;53.730;10.010;2024-01-07T14:39:33;102640.22;;;-3.28;100.00
20444;BME280;10381;53.730;10.010;2024-01-07T14:43:34;102641.06;;;-3.26;100.00
20444;BME280;10381;53.730;10.010;2024-01-07T14:47:34;102644.53;;;-3.36;100.00
20444;BME280;10381;53.730;10.010;2024-01-07T14:51:35;102641.94;;;-3.44;100.00
20444;BME280;10381;53.730;10.010;2024-01-07T14:55:36;102653.19;;;-3.44;100.00
20444;BME280;10381;53.730;10.010;2024-01-07T14:59:36;102649.72;;;-3.44;100.00
20444;BME280;10381;53.730;10.010;2024-01-07T15:03:37;102645.41;;;-3.48;100.00
20444;BME280;10381;53.730;10.010;2024-01-07T15:07:37;102648.88;;;-3.51;100.00
20444;BME280;10381;53.730;10.010;2024-01-07T15:11:38;102648.84;;;-3.52;100.00
20444;BME280;10381;53.730;10.010;2024-01-07T15:15:41;102653.19;;;-3.56;100.00
20444;BME280;10381;53.730;10.010;2024-01-07T15:19:42;102648.00;;;-3.62;100.00
20444;BME280;10381;53.730;10.010;2024-01-07T15:23:42;102651.44;;;-3.84;100.00
20444;BME280;10381;53.730;10.010;2024-01-07T15:27:43;102655.75;;;-3.77;100.00
20444;BME280;10381;53.730;10.010;2024-01-07T15:31:45;102651.41;;;-3.83;100.00
20444;BME280;10381;53.730;10.010;2024-01-07T15:35:46;102657.44;;;-4.04;100.00
20444;BME280;10381;53.730;10.010;2024-01-07T15:39:46;102659.09;;;-4.14;100.00
20444;BME280;10381;53.730;10.010;2024-01-07T15:43:46;102665.13;;;-4.30;100.00
20444;BME280;10381;53.730;10.010;2024-01-07T15:47:46;102673.63;;;-4.56;100.00
20444;BME280;10381;53.730;10.010;2024-01-07T15:51:48;102673.59;;;-4.63;100.00
20444;BME280;10381;53.730;10.010;2024-01-07T15:55:48;102671.00;;;-4.65;100.00
20444;BME280;10381;53.730;10.010;2024-01-07T15:59:48;102678.66;;;-4.85;100.00
20444;BME280;10381;53.730;10.010;2024-01-07T16:03:49;102677.38;;;-5.39;100.00
20444;BME280;10381;53.730;10.010;2024-01-07T16:07:49;102672.91;;;-5.62;100.00
20444;BME280;10381;53.730;10.010;2024-01-07T16:11:51;102672.94;;;-5.60;100.00
20444;BME280;10381;53.730;10.010;2024-01-07T16:15:52;102670.53;;;-5.37;100.00
20444;BME280;10381;53.730;10.010;2024-01-07T16:19:53;102663.78;;;-5.15;100.00
20444;BME280;10381;53.730;10.010;2024-01-07T16:23:53;102662.22;;;-4.92;100.00
20444;BME280;10381;53.730;10.010;2024-01-07T16:27:54;102673.56;;;-4.69;100.00
20444;BME280;10381;53.730;10.010;2024-01-07T16:31:55;102666.75;;;-4.52;100.00
20444;BME280;10381;53.730;10.010;2024-01-07T16:35:55;102673.72;;;-4.36;100.00
20444;BME280;10381;53.730;10.010;2024-01-07T16:39:55;102673.75;;;-4.30;100.00
20444;BME280;10381;53.730;10.010;2024-01-07T16:43:55;102682.41;;;-4.18;100.00
20444;BME280;10381;53.730;10.010;2024-01-07T16:47:56;102683.31;;;-4.04;100.00
20444;BME280;10381;53.730;10.010;2024-01-07T16:51:56;102683.34;;;-3.92;100.00
20444;BME280;10381;53.730;10.010;2024-01-07T16:55:57;102697.19;;;-3.82;100.00
20444;BME280;10381;53.730;10.010;2024-01-07T16:59:57;102699.75;;;-3.85;100.00
20444;BME280;10381;53.730;10.010;2024-01-07T17:03:57;102699.78;;;-3.74;100.00
20444;BME280;10381;53.730;10.010;2024-01-07T17:07:58;102704.09;;;-3.69;100.00
20444;BME280;10381;53.730;10.010;2024-01-07T17:11:58;102713.59;;;-3.58;100.00
20444;BME280;10381;53.730;10.010;2024-01-07T17:15:58;102716.22;;;-3.57;100.00
20444;BME280;10381;53.730;10.010;2024-01-07T17:19:59;102723.09;;;-3.64;100.00
20444;BME280;10381;53.730;10.010;2024-01-07T17:23:59;102726.59;;;-3.63;100.00
20444;BME280;10381;53.730;10.010;2024-01-07T17:27:59;102736.06;;;-3.59;100.00
20444;BME280;10381;53.730;10.010;2024-01-07T17:31:59;102737.81;;;-3.58;100.00
20444;BME280;10381;53.730;10.010;2024-01-07T17:36:00;102742.97;;;-3.61;100.00
20444;BME280;10381;53.730;10.010;2024-01-07T17:40:00;102742.13;;;-3.60;100.00
20444;BME280;10381;53.730;10.010;2024-01-07T17:44:00;102749.91;;;-3.60;100.00
20444;BME280;10381;53.730;10.010;2024-01-07T17:48:01;102748.19;;;-3.49;100.00
20444;BME280;10381;53.730;10.010;2024-01-07T17:52:03;102755.09;;;-3.49;100.00
20444;BME280;10381;53.730;10.010;2024-01-07T17:56:04;102762.00;;;-3.53;100.00
20444;BME280;10381;53.730;10.010;2024-01-07T18:00:06;102755.94;;;-3.56;100.00
20444;BME280;10381;53.730;10.010;2024-01-07T18:04:07;102762.84;;;-3.52;100.00
20444;BME280;10381;53.730;10.010;2024-01-07T18:08:07;102753.34;;;-3.58;100.00
20444;BME280;10381;53.730;10.010;2024-01-07T18:12:08;102758.50;;;-3.61;100.00
20444;BME280;10381;53.730;10.010;2024-01-07T18:16:08;102768.03;;;-3.54;100.00
20444;BME280;10381;53.730;10.010;2024-01-07T18:20:10;102773.22;;;-3.60;100.00
20444;BME280;10381;53.730;10.010;2024-01-07T18:24:10;102775.78;;;-3.66;100.00
20444;BME280;10381;53.730;10.010;2024-01-07T18:28:11;102770.59;;;-3.68;100.00
20444;BME280;10381;53.730;10.010;2024-01-07T18:32:12;102780.09;;;-3.70;100.00
20444;BME280;10381;53.730;10.010;2024-01-07T18:36:12;102794.72;;;-3.86;100.00
20444;BME280;10381;53.730;10.010;2024-01-07T18:40:15;102795.53;;;-3.93;100.00
20444;BME280;10381;53.730;10.010;2024-01-07T18:44:16;102792.09;;;-3.93;100.00
20444;BME280;10381;53.730;10.010;2024-01-07T18:48:16;102794.69;;;-3.92;100.00
20444;BME280;10381;53.730;10.010;2024-01-07T18:52:16;102801.63;;;-3.86;100.00
20444;BME280;10381;53.730;10.010;2024-01-07T18:56:20;102802.47;;;-3.86;100.00
20444;BME280;10381;53.730;10.010;2024-01-07T19:00:20;102806.84;;;-3.80;100.00
20444;BME280;10381;53.730;10.010;2024-01-07T19:04:20;102807.66;;;-3.86;100.00
20444;BME280;10381;53.730;10.010;2024-01-07T19:08:21;102816.28;;;-3.85;100.00
20444;BME280;10381;53.730;10.010;2024-01-07T19:12:21;102820.59;;;-3.92;100.00
20444;BME280;10381;53.730;10.010;2024-01-07T19:16:21;102817.97;;;-3.96;100.00
20444;BME280;10381;53.730;10.010;2024-01-07T19:20:22;102820.56;;;-3.90;100.00
20444;BME280;10381;53.730;10.010;2024-01-07T19:24:30;102825.72;;;-3.95;100.00
20444;BME280;10381;53.730;10.010;2024-01-07T19:28:30;102826.66;;;-3.87;100.00
20444;BME280;10381;53.730;10.010;2024-01-07T19:32:30;102839.56;;;-3.90;100.00
20444;BME280;10381;53.730;10.010;2024-01-07T19:36:31;102834.38;;;-3.93;100.00
20444;BME280;10381;53.730;10.010;2024-01-07T19:40:32;102835.25;;;-3.92;100.00
20444;BME280;10381;53.730;10.010;2024-01-07T19:44:33;102836.97;;;-3.94;100.00
20444;BME280;10381;53.730;10.010;2024-01-07T19:48:34;102834.38;;;-3.93;100.00
20444;BME280;10381;53.730;10.010;2024-01-07T19:52:34;102834.38;;;-3.90;100.00
20444;BME280;10381;53.730;10.010;2024-01-07T19:56:35;102839.50;;;-4.02;100.00
20444;BME280;10381;53.730;10.010;2024-01-07T20:00:36;102843.91;;;-3.92;100.00
20444;BME280;10381;53.730;10.010;2024-01-07T20:04:37;102847.34;;;-3.90;100.00
20444;BME280;10381;53.730;10.010;2024-01-07T20:08:44;102845.63;;;-3.89;100.00
20444;BME280;10381;53.730;10.010;2024-01-07T20:12:45;102843.03;;;-3.89;100.00
20444;BME280;10381;53.730;10.010;2024-01-07T20:16:45;102842.16;;;-3.88;100.00
20444;BME280;10381;53.730;10.010;2024-01-07T20:20:45;102840.47;;;-3.86;100.00
20444;BME280;10381;53.730;10.010;2024-01-07T20:24:46;102835.25;;;-3.94;100.00
20444;BME280;10381;53.730;10.010;2024-01-07T20:28:46;102834.47;;;-3.77;100.00
20444;BME280;10381;53.730;10.010;2024-01-07T20:32:49;102836.19;;;-3.76;100.00